Time;durP1;ratioP1;P1;durP2;ratioP2;P2;SDS_P1;SDS_P2;PMS_P1;PMS_P2;Temp;Humidity;BMP_temperature;BMP_pressure;BME280_temperature;BME280_humidity;BME280_pressure;Samples;Min_cycle;Max_cycle;Signal;HPM_P1;HPM_P2
2023/12/23 00:02:08;;;;;;;2.10;0.70;;;9.60;99.90;;;;;;5015903;28;20674;-81
2023/12/23 00:04:33;;;;;;;4.03;0.70;;;9.60;99.90;;;;;;5014471;28;20201;-82
2023/12/23 00:06:59;;;;;;;1.30;0.57;;;9.70;99.90;;;;;;5015319;28;20654;-81
2023/12/23 00:09:25;;;;;;;1.80;0.60;;;9.60;99.90;;;;;;5032285;28;20679;-81
2023/12/23 00:11:51;;;;;;;1.70;0.60;;;9.60;99.90;;;;;;5033348;28;20695;-81
2023/12/23 00:14:16;;;;;;;3.13;0.70;;;9.70;99.90;;;;;;5032725;28;20249;-80
2023/12/23 00:16:43;;;;;;;3.47;0.67;;;9.60;99.90;;;;;;5034334;28;20196;-80
2023/12/23 00:19:09;;;;;;;2.20;0.70;;;9.70;99.90;;;;;;5016525;28;20198;-80
2023/12/23 00:21:35;;;;;;;2.50;0.83;;;9.70;99.90;;;;;;5024858;28;20188;-81
2023/12/23 00:24:01;;;;;;;4.57;0.97;;;9.70;99.90;;;;;;5016447;28;20580;-82
2023/12/23 00:26:26;;;;;;;2.50;0.60;;;9.70;99.90;;;;;;5033990;28;20213;-81
2023/12/23 00:28:52;;;;;;;2.23;0.70;;;9.70;99.90;;;;;;5023907;28;20986;-81
2023/12/23 00:31:18;;;;;;;4.93;0.70;;;9.70;99.90;;;;;;5022957;28;20185;-82
2023/12/23 00:33:47;;;;;;;2.05;0.75;;;9.70;99.90;;;;;;5019312;28;20592;-80
2023/12/23 00:36:13;;;;;;;2.45;0.60;;;9.70;99.90;;;;;;5005587;28;20185;-80
2023/12/23 00:38:39;;;;;;;3.20;0.70;;;9.70;99.90;;;;;;5017657;28;20244;-80
2023/12/23 00:41:05;;;;;;;3.40;1.20;;;9.70;99.90;;;;;;5015666;28;20592;-80
2023/12/23 00:43:30;;;;;;;3.20;0.80;;;9.70;99.90;;;;;;5040100;28;20181;-79
2023/12/23 00:45:56;;;;;;;2.60;1.00;;;9.70;99.90;;;;;;5015717;28;20208;-80
2023/12/23 00:48:22;;;;;;;2.93;1.10;;;9.70;99.90;;;;;;5033573;28;20576;-80
2023/12/23 00:50:48;;;;;;;3.10;1.00;;;9.70;99.90;;;;;;5049636;28;20260;-80
2023/12/23 00:53:15;;;;;;;5.03;0.90;;;9.70;99.90;;;;;;5023303;28;20676;-80
2023/12/23 00:55:41;;;;;;;3.25;1.00;;;9.70;99.90;;;;;;5015429;28;20173;-77
2023/12/23 00:58:07;;;;;;;2.33;0.70;;;9.70;99.90;;;;;;4999455;28;20663;-76
2023/12/23 01:00:33;;;;;;;3.10;1.17;;;9.70;99.90;;;;;;5049707;28;20215;-76
2023/12/23 01:02:58;;;;;;;3.93;0.60;;;9.70;99.90;;;;;;5040840;28;20184;-76
2023/12/23 01:05:24;;;;;;;1.60;0.57;;;9.80;99.90;;;;;;5015265;28;20298;-77
2023/12/23 01:07:50;;;;;;;4.30;1.07;;;9.70;99.90;;;;;;5031847;28;20196;-77
2023/12/23 01:10:16;;;;;;;1.90;0.53;;;9.80;99.90;;;;;;5049468;28;20212;-77
2023/12/23 01:12:41;;;;;;;3.30;1.00;;;9.80;99.90;;;;;;5031368;28;20184;-77
2023/12/23 01:15:07;;;;;;;6.23;0.90;;;9.80;99.90;;;;;;5049524;28;20227;-77
2023/12/23 01:17:33;;;;;;;1.58;0.68;;;9.80;99.90;;;;;;5041436;28;20178;-77
2023/12/23 01:19:59;;;;;;;3.23;0.80;;;9.80;99.90;;;;;;5015862;28;20207;-77
2023/12/23 01:22:24;;;;;;;3.53;0.83;;;9.80;99.90;;;;;;5052450;28;20227;-77
2023/12/23 01:24:50;;;;;;;3.10;0.70;;;9.80;99.90;;;;;;5018609;28;20220;-77
2023/12/23 01:27:18;;;;;;;4.93;0.70;;;9.80;99.90;;;;;;5016424;28;20181;-77
2023/12/23 01:29:43;;;;;;;2.08;0.70;;;9.80;99.90;;;;;;5034290;28;20267;-77
2023/12/23 01:32:09;;;;;;;2.53;0.77;;;9.80;99.90;;;;;;5015901;28;20173;-76
2023/12/23 01:34:35;;;;;;;3.50;0.80;;;9.80;99.90;;;;;;5018675;28;20239;-76
2023/12/23 01:37:01;;;;;;;2.10;0.70;;;9.80;99.90;;;;;;5052752;28;20185;-76
2023/12/23 01:39:28;;;;;;;4.10;0.75;;;9.80;99.90;;;;;;5052754;28;20200;-76
2023/12/23 01:41:53;;;;;;;3.15;0.93;;;9.80;99.90;;;;;;5052353;28;20231;-76
2023/12/23 01:44:19;;;;;;;2.20;0.80;;;9.80;99.90;;;;;;5018449;28;20190;-76
2023/12/23 01:46:46;;;;;;;3.63;0.77;;;9.80;99.90;;;;;;5052805;28;20522;-76
2023/12/23 01:49:12;;;;;;;3.35;0.70;;;9.80;99.90;;;;;;5017979;28;20250;-76
2023/12/23 01:51:38;;;;;;;3.10;0.60;;;9.80;99.90;;;;;;5001225;28;20196;-76
2023/12/23 01:54:05;;;;;;;4.07;0.77;;;9.80;99.90;;;;;;5052464;28;20181;-76
2023/12/23 01:56:35;;;;;;;4.10;0.95;;;9.80;99.90;;;;;;5018081;28;20168;-76
2023/12/23 01:59:02;;;;;;;7.75;0.80;;;9.80;99.90;;;;;;5052287;28;20228;-76
2023/12/23 02:01:32;;;;;;;4.65;0.77;;;9.80;99.90;;;;;;5051771;28;20514;-77
2023/12/23 02:03:57;;;;;;;2.47;0.75;;;9.90;99.90;;;;;;5002216;28;20181;-76
2023/12/23 02:06:23;;;;;;;3.80;1.20;;;9.90;99.90;;;;;;5031009;28;20687;-77
2023/12/23 02:08:49;;;;;;;6.43;1.73;;;9.90;99.90;;;;;;4997259;28;20675;-76
2023/12/23 02:11:59;;;;;;;3.08;1.27;;;9.90;99.90;;;;;;5032293;28;20226;-76
2023/12/23 02:14:31;;;;;;;4.45;1.52;;;9.90;99.90;;;;;;5014751;28;20814;-77
2023/12/23 02:16:57;;;;;;;4.90;1.20;;;9.90;99.90;;;;;;5014476;28;20169;-77
2023/12/23 02:19:22;;;;;;;4.88;1.23;;;9.90;99.90;;;;;;5014451;28;20196;-77
2023/12/23 02:21:48;;;;;;;5.93;1.77;;;9.90;99.90;;;;;;4997382;28;20169;-77
2023/12/23 02:24:14;;;;;;;4.37;1.57;;;9.90;99.90;;;;;;5014276;28;20178;-77
2023/12/23 02:26:41;;;;;;;4.33;1.20;;;9.90;99.90;;;;;;5031103;28;20545;-77
2023/12/23 02:29:08;;;;;;;4.72;1.05;;;9.90;99.90;;;;;;5013967;28;20205;-77
2023/12/23 02:31:34;;;;;;;4.05;0.90;;;10.00;99.90;;;;;;4998431;28;20196;-77
2023/12/23 02:34:00;;;;;;;3.05;1.05;;;10.00;99.90;;;;;;4998137;28;20272;-77
2023/12/23 02:36:26;;;;;;;4.85;0.80;;;10.00;99.90;;;;;;5014148;28;20200;-77
2023/12/23 02:38:52;;;;;;;2.57;0.90;;;10.00;99.90;;;;;;4997751;28;20194;-77
2023/12/23 02:41:18;;;;;;;3.53;0.80;;;10.10;99.90;;;;;;5013434;28;20177;-77
2023/12/23 02:43:52;;;;;;;3.47;0.80;;;10.10;99.90;;;;;;5014005;28;20172;-77
2023/12/23 02:46:34;;;;;;;1.40;0.70;;;10.20;99.90;;;;;;5013837;28;20216;-77
2023/12/23 02:49:00;;;;;;;3.77;1.10;;;10.20;99.90;;;;;;5014149;28;20572;-77
2023/12/23 02:51:26;;;;;;;3.60;1.50;;;10.20;99.90;;;;;;5013276;28;20189;-77
2023/12/23 02:53:52;;;;;;;3.83;1.80;;;10.20;99.90;;;;;;4997422;28;21246;-77
2023/12/23 02:56:18;;;;;;;2.90;1.20;;;10.30;99.90;;;;;;5013825;28;20623;-77
2023/12/23 02:58:43;;;;;;;2.10;1.00;;;10.20;99.90;;;;;;5013775;28;20193;-77
2023/12/23 03:01:09;;;;;;;3.60;1.20;;;10.30;99.90;;;;;;5008784;28;20189;-80
2023/12/23 03:03:35;;;;;;;9.32;1.40;;;10.30;99.90;;;;;;5014955;28;20170;-81
2023/12/23 03:06:01;;;;;;;4.03;1.40;;;10.30;99.90;;;;;;4999121;28;20579;-81
2023/12/23 03:08:27;;;;;;;3.97;1.23;;;10.30;99.90;;;;;;5003293;28;20240;-81
2023/12/23 03:10:52;;;;;;;3.60;1.20;;;10.40;99.90;;;;;;5010947;28;20236;-81
2023/12/23 03:13:18;;;;;;;2.83;1.20;;;10.40;99.90;;;;;;5019697;28;20285;-81
2023/12/23 03:15:44;;;;;;;4.60;1.63;;;10.50;99.90;;;;;;5039961;28;20186;-81
2023/12/23 03:18:09;;;;;;;7.33;3.23;;;10.50;99.90;;;;;;5027947;28;20186;-80
2023/12/23 03:20:35;;;;;;;4.60;1.80;;;10.50;99.90;;;;;;5003315;28;20220;-81
2023/12/23 03:23:03;;;;;;;6.87;1.70;;;10.60;99.90;;;;;;5016900;28;20186;-81
2023/12/23 03:25:29;;;;;;;5.45;2.42;;;10.60;99.90;;;;;;4997120;28;20228;-81
2023/12/23 03:27:55;;;;;;;6.63;2.15;;;10.70;99.90;;;;;;5005647;28;20335;-81
2023/12/23 03:30:21;;;;;;;6.20;2.00;;;10.70;99.90;;;;;;5013380;28;20669;-81
2023/12/23 03:32:46;;;;;;;6.60;2.10;;;10.70;99.90;;;;;;5018927;28;20231;-81
2023/12/23 03:35:13;;;;;;;7.35;2.38;;;10.70;99.90;;;;;;5013683;28;20181;-80
2023/12/23 03:37:39;;;;;;;5.47;2.83;;;10.80;99.90;;;;;;5031031;28;20197;-80
2023/12/23 03:40:07;;;;;;;6.40;2.40;;;10.80;99.90;;;;;;5031128;28;20205;-81
2023/12/23 03:42:32;;;;;;;7.22;2.30;;;10.80;99.90;;;;;;5018508;28;20175;-80
2023/12/23 03:44:58;;;;;;;4.20;2.43;;;10.80;99.90;;;;;;4992262;28;20235;-81
2023/12/23 03:47:24;;;;;;;7.17;2.70;;;10.80;99.90;;;;;;5010994;28;20635;-80
2023/12/23 03:49:50;;;;;;;7.30;3.37;;;10.90;99.90;;;;;;4969615;28;20217;-81
2023/12/23 03:52:16;;;;;;;4.80;2.72;;;10.90;99.90;;;;;;5010334;28;20260;-81
2023/12/23 03:54:42;;;;;;;3.70;2.63;;;10.90;99.90;;;;;;5008605;28;20269;-79
2023/12/23 03:57:07;;;;;;;6.40;2.70;;;10.90;99.90;;;;;;4993879;28;20235;-80
2023/12/23 03:59:33;;;;;;;3.00;2.00;;;10.90;99.90;;;;;;5012798;28;20738;-81
2023/12/23 04:01:59;;;;;;;3.00;2.10;;;10.90;99.90;;;;;;5028620;28;20655;-81
2023/12/23 04:04:24;;;;;;;9.03;3.53;;;10.90;99.90;;;;;;5004800;28;20192;-80
2023/12/23 04:06:50;;;;;;;11.73;3.20;;;10.90;99.90;;;;;;5012928;28;20173;-79
2023/12/23 04:09:17;;;;;;;3.30;2.37;;;10.90;99.90;;;;;;4996426;28;20209;-81
2023/12/23 04:11:43;;;;;;;8.07;3.28;;;10.90;99.90;;;;;;5012430;28;20173;-80
2023/12/23 04:14:09;;;;;;;7.47;3.10;;;10.90;99.90;;;;;;5030332;28;20177;-80
2023/12/23 04:16:39;;;;;;;3.70;2.03;;;10.90;99.90;;;;;;5012933;28;20856;-80
2023/12/23 04:19:05;;;;;;;4.38;3.03;;;10.90;99.90;;;;;;4996899;28;20290;-80
2023/12/23 04:21:31;;;;;;;9.93;3.17;;;10.90;99.90;;;;;;5004418;28;20188;-80
2023/12/23 04:23:58;;;;;;;8.63;3.03;;;10.90;99.90;;;;;;4988416;28;20557;-80
2023/12/23 04:26:26;;;;;;;7.10;2.75;;;10.90;99.90;;;;;;5022219;28;20212;-80
2023/12/23 04:28:51;;;;;;;7.00;3.30;;;10.90;99.90;;;;;;4995957;28;20292;-80
2023/12/23 04:31:17;;;;;;;9.43;2.50;;;10.90;99.90;;;;;;4995652;28;20601;-80
2023/12/23 04:33:43;;;;;;;7.05;2.60;;;10.90;99.90;;;;;;5029403;28;20174;-80
2023/12/23 04:36:09;;;;;;;4.93;2.23;;;10.90;99.90;;;;;;5021009;28;20208;-80
2023/12/23 04:38:35;;;;;;;5.28;2.53;;;10.90;99.90;;;;;;5004022;28;20193;-80
2023/12/23 04:41:01;;;;;;;6.27;2.43;;;10.90;99.90;;;;;;5020775;28;20209;-80
2023/12/23 04:43:30;;;;;;;7.05;2.90;;;10.90;99.90;;;;;;4995111;28;20697;-80
2023/12/23 04:45:57;;;;;;;5.38;1.70;;;10.90;99.90;;;;;;5012622;28;20672;-80
2023/12/23 04:48:24;;;;;;;4.85;2.08;;;10.90;99.90;;;;;;5012401;28;20185;-80
2023/12/23 04:50:50;;;;;;;5.30;2.03;;;10.90;99.90;;;;;;5004505;28;20213;-80
2023/12/23 04:53:17;;;;;;;4.60;1.97;;;10.90;99.90;;;;;;5006467;28;20570;-81
2023/12/23 04:55:43;;;;;;;3.30;1.70;;;10.90;99.90;;;;;;4991625;28;20177;-80
2023/12/23 04:58:08;;;;;;;3.83;1.80;;;10.90;99.90;;;;;;4991922;28;20552;-80
2023/12/23 05:00:34;;;;;;;3.97;1.40;;;10.90;99.90;;;;;;5007828;28;20608;-80
2023/12/23 05:03:00;;;;;;;3.10;1.63;;;10.90;99.90;;;;;;4991193;28;20231;-81
2023/12/23 05:05:27;;;;;;;5.75;1.25;;;10.90;99.90;;;;;;5008037;28;20260;-80
2023/12/23 05:07:53;;;;;;;4.63;1.73;;;10.90;99.90;;;;;;5014113;28;20545;-80
2023/12/23 05:10:19;;;;;;;10.23;1.80;;;10.90;99.90;;;;;;4999733;28;20639;-80
2023/12/23 05:12:46;;;;;;;5.18;1.65;;;10.90;99.90;;;;;;4994550;28;20171;-80
2023/12/23 05:15:11;;;;;;;11.53;1.70;;;10.90;99.90;;;;;;5022150;28;20190;-80
2023/12/23 05:17:37;;;;;;;5.70;1.90;;;10.90;99.90;;;;;;5015659;28;21186;-80
2023/12/23 05:20:10;;;;;;;5.75;1.20;;;10.90;99.90;;;;;;5023980;28;21021;-80
2023/12/23 05:22:36;;;;;;;3.08;1.10;;;10.90;99.90;;;;;;4998587;28;20240;-80
2023/12/23 05:25:02;;;;;;;5.30;1.20;;;11.00;99.90;;;;;;5015507;28;20193;-80
2023/12/23 05:27:28;;;;;;;5.03;1.17;;;10.90;99.90;;;;;;4999258;28;20188;-81
2023/12/23 05:29:56;;;;;;;2.23;1.10;;;10.90;99.90;;;;;;5007517;28;20579;-80
2023/12/23 05:32:22;;;;;;;6.65;1.20;;;10.90;99.90;;;;;;5015388;28;20531;-81
2023/12/23 05:34:47;;;;;;;4.03;1.10;;;10.90;99.90;;;;;;5033460;28;20169;-81
2023/12/23 05:37:13;;;;;;;2.33;1.00;;;11.00;99.90;;;;;;5019553;28;20269;-80
2023/12/23 05:39:39;;;;;;;4.53;1.70;;;11.00;99.90;;;;;;5020696;28;20213;-80
2023/12/23 05:42:05;;;;;;;5.77;1.20;;;11.00;99.90;;;;;;4994619;28;20603;-80
2023/12/23 05:44:30;;;;;;;4.03;1.00;;;11.00;99.90;;;;;;5025044;28;20581;-80
2023/12/23 05:46:56;;;;;;;5.93;1.17;;;11.00;99.90;;;;;;5007462;28;20624;-80
2023/12/23 05:49:22;;;;;;;5.97;1.47;;;11.00;99.90;;;;;;5014257;28;20201;-80
2023/12/23 05:51:48;;;;;;;4.80;1.03;;;11.00;99.90;;;;;;5008088;28;20690;-80
2023/12/23 05:54:13;;;;;;;5.23;1.17;;;11.00;99.90;;;;;;5015348;28;20178;-81
2023/12/23 05:56:39;;;;;;;2.77;1.50;;;11.00;99.90;;;;;;5015571;28;20177;-80
2023/12/23 05:59:05;;;;;;;2.70;0.90;;;11.00;99.90;;;;;;5033432;28;20728;-81
2023/12/23 06:01:30;;;;;;;6.20;1.23;;;11.00;99.90;;;;;;5008775;28;20177;-80
2023/12/23 06:03:56;;;;;;;4.30;1.30;;;11.00;99.90;;;;;;5009290;28;20186;-80
2023/12/23 06:06:42;;;;;;;6.27;1.57;;;11.00;99.90;;;;;;5017313;28;20232;-80
2023/12/23 06:09:08;;;;;;;4.60;1.52;;;11.00;99.90;;;;;;5034792;28;20300;-80
2023/12/23 06:11:35;;;;;;;7.63;1.88;;;11.00;99.90;;;;;;5023230;28;20210;-81
2023/12/23 06:14:00;;;;;;;7.00;1.85;;;11.00;99.90;;;;;;5015125;28;20578;-79
2023/12/23 06:16:26;;;;;;;6.07;1.35;;;11.00;99.90;;;;;;5032799;28;20259;-80
2023/12/23 06:18:52;;;;;;;6.63;1.43;;;11.00;99.90;;;;;;4998467;28;20225;-80
2023/12/23 06:21:18;;;;;;;3.87;1.20;;;11.00;99.90;;;;;;4997902;28;20597;-80
2023/12/23 06:23:44;;;;;;;9.17;1.20;;;11.10;99.90;;;;;;5006812;28;20583;-80
2023/12/23 06:26:10;;;;;;;4.37;1.63;;;11.10;99.90;;;;;;5010762;28;20206;-80
2023/12/23 06:28:36;;;;;;;3.55;1.80;;;11.10;99.90;;;;;;5014597;28;20224;-80
2023/12/23 06:31:02;;;;;;;7.80;1.67;;;11.10;99.90;;;;;;5014716;28;20165;-80
2023/12/23 06:33:27;;;;;;;5.23;1.77;;;11.10;99.90;;;;;;5031903;28;20178;-81
2023/12/23 06:35:53;;;;;;;4.70;1.30;;;11.10;99.90;;;;;;5014425;28;20212;-81
2023/12/23 06:38:19;;;;;;;4.93;1.37;;;11.10;99.90;;;;;;5031953;28;20209;-80
2023/12/23 06:40:45;;;;;;;3.07;1.43;;;11.10;99.90;;;;;;5014395;28;20177;-81
2023/12/23 06:43:10;;;;;;;5.97;1.53;;;11.10;99.90;;;;;;5024369;28;20178;-80
2023/12/23 06:45:36;;;;;;;5.20;1.33;;;11.10;99.90;;;;;;5031160;28;20201;-80
2023/12/23 06:48:02;;;;;;;4.43;1.33;;;11.10;99.90;;;;;;5014151;28;20535;-80
2023/12/23 06:50:28;;;;;;;4.73;1.50;;;11.20;99.90;;;;;;5006011;28;20201;-80
2023/12/23 06:52:53;;;;;;;5.67;1.20;;;11.10;99.90;;;;;;5013170;28;20676;-80
2023/12/23 06:55:19;;;;;;;2.23;1.30;;;11.10;99.90;;;;;;4997619;28;20182;-80
2023/12/23 06:57:45;;;;;;;6.90;1.50;;;11.10;99.90;;;;;;5031823;28;20577;-80
2023/12/23 07:00:12;;;;;;;4.65;1.17;;;11.20;99.90;;;;;;5014062;28;20262;-80
2023/12/23 07:02:37;;;;;;;5.47;1.30;;;11.10;99.90;;;;;;4996935;28;20182;-80
2023/12/23 07:05:03;;;;;;;2.00;1.40;;;11.20;99.90;;;;;;5031489;28;20216;-80
2023/12/23 07:07:31;;;;;;;3.72;1.13;;;11.10;99.90;;;;;;5031497;28;20200;-80
2023/12/23 07:09:59;;;;;;;2.87;1.20;;;11.10;99.90;;;;;;5013662;28;20283;-79
2023/12/23 07:12:25;;;;;;;4.07;1.30;;;11.20;99.90;;;;;;5029967;28;20181;-80
2023/12/23 07:14:51;;;;;;;4.23;1.20;;;11.20;99.90;;;;;;5006525;28;20173;-80
2023/12/23 07:17:17;;;;;;;5.37;1.10;;;11.20;99.90;;;;;;5022202;28;20189;-79
2023/12/23 07:19:42;;;;;;;3.33;1.00;;;11.20;99.90;;;;;;5013542;28;20612;-80
2023/12/23 07:22:08;;;;;;;2.67;1.00;;;11.20;99.90;;;;;;5012889;28;20186;-80
2023/12/23 07:24:34;;;;;;;4.47;1.30;;;11.20;99.90;;;;;;5031192;28;20576;-80
2023/12/23 07:27:02;;;;;;;3.73;1.20;;;11.30;99.90;;;;;;4984065;28;20229;-80
2023/12/23 07:29:28;;;;;;;5.47;1.23;;;11.30;99.90;;;;;;5028652;28;20201;-80
2023/12/23 07:31:53;;;;;;;5.13;2.03;;;11.30;99.90;;;;;;4996515;28;20320;-80
2023/12/23 07:34:19;;;;;;;4.97;1.00;;;11.30;99.90;;;;;;5019302;28;20176;-80
2023/12/23 07:36:45;;;;;;;5.73;2.03;;;11.30;99.90;;;;;;5025983;28;20182;-80
2023/12/23 07:39:11;;;;;;;3.53;1.47;;;11.30;99.90;;;;;;5005361;28;20225;-80
2023/12/23 07:41:36;;;;;;;3.77;1.30;;;11.30;99.90;;;;;;5012613;28;20272;-80
2023/12/23 07:44:02;;;;;;;4.43;1.60;;;11.20;99.90;;;;;;5013649;28;20182;-80
2023/12/23 07:46:28;;;;;;;3.23;1.40;;;11.30;99.90;;;;;;5012498;28;20280;-80
2023/12/23 07:48:55;;;;;;;1.70;1.10;;;11.20;99.90;;;;;;5023857;28;21040;-80
2023/12/23 07:51:21;;;;;;;3.90;1.70;;;11.20;99.90;;;;;;5022555;28;20227;-81
2023/12/23 07:53:47;;;;;;;4.38;1.95;;;11.20;99.90;;;;;;5005430;28;20178;-80
2023/12/23 07:56:12;;;;;;;4.40;1.70;;;11.20;99.90;;;;;;5013835;28;20236;-80
2023/12/23 07:58:38;;;;;;;4.73;1.20;;;11.20;99.90;;;;;;5005604;28;20579;-80
2023/12/23 08:01:04;;;;;;;7.10;1.87;;;11.20;99.90;;;;;;4997032;28;20216;-80
2023/12/23 08:03:29;;;;;;;3.90;1.70;;;11.20;99.90;;;;;;5030825;28;20190;-79
2023/12/23 08:05:55;;;;;;;3.23;1.50;;;11.20;99.90;;;;;;5013102;28;20212;-79
2023/12/23 08:08:21;;;;;;;4.73;1.20;;;11.20;99.90;;;;;;5013203;28;20235;-80
2023/12/23 08:10:46;;;;;;;4.03;1.43;;;11.20;99.90;;;;;;5030772;28;20186;-80
2023/12/23 08:13:12;;;;;;;4.60;1.70;;;11.20;99.90;;;;;;5032528;28;20181;-80
2023/12/23 08:15:38;;;;;;;4.20;1.90;;;11.30;99.90;;;;;;5032012;28;20190;-80
2023/12/23 08:18:04;;;;;;;6.23;2.17;;;11.30;99.90;;;;;;5014005;28;20185;-80
2023/12/23 08:20:32;;;;;;;6.07;1.67;;;11.30;99.90;;;;;;5026700;28;20676;-81
2023/12/23 08:23:04;;;;;;;7.28;2.47;;;11.30;99.90;;;;;;5020079;28;20662;-80
2023/12/23 08:25:31;;;;;;;5.25;1.73;;;11.30;99.90;;;;;;5022182;28;20233;-81
2023/12/23 08:27:57;;;;;;;4.55;1.45;;;11.30;99.90;;;;;;5012058;28;20171;-79
2023/12/23 08:30:22;;;;;;;5.27;2.10;;;11.30;99.90;;;;;;5020009;28;20193;-80
2023/12/23 08:32:48;;;;;;;4.33;1.80;;;11.30;99.90;;;;;;5040132;28;20580;-81
2023/12/23 08:35:20;;;;;;;3.60;1.60;;;11.30;99.90;;;;;;5023568;28;20185;-80
2023/12/23 08:37:46;;;;;;;4.18;1.80;;;11.30;99.90;;;;;;5042875;28;20216;-80
2023/12/23 08:40:15;;;;;;;10.95;2.45;;;11.40;99.90;;;;;;5032668;28;20205;-80
2023/12/23 08:42:41;;;;;;;7.47;2.05;;;11.40;99.90;;;;;;5038475;28;20204;-80
2023/12/23 08:45:07;;;;;;;8.77;2.33;;;11.40;99.90;;;;;;4995164;28;20206;-80
2023/12/23 08:47:33;;;;;;;2.47;1.53;;;11.40;99.90;;;;;;5014641;28;20220;-80
2023/12/23 08:49:58;;;;;;;8.00;1.87;;;11.40;99.90;;;;;;5026603;28;21162;-80
2023/12/23 08:52:24;;;;;;;2.87;1.90;;;11.50;99.90;;;;;;5033196;28;20177;-81
2023/12/23 08:54:50;;;;;;;8.20;2.17;;;11.50;99.90;;;;;;5005524;28;20178;-79
2023/12/23 08:57:16;;;;;;;6.32;2.20;;;11.50;99.90;;;;;;5003299;28;20208;-81
2023/12/23 08:59:41;;;;;;;9.77;2.17;;;11.60;99.90;;;;;;5006959;28;20198;-80
2023/12/23 09:02:07;;;;;;;7.63;2.27;;;11.60;99.90;;;;;;5013878;28;20576;-81
2023/12/23 09:04:33;;;;;;;5.90;1.67;;;11.60;99.90;;;;;;5014663;28;20201;-80
2023/12/23 09:06:59;;;;;;;6.23;2.33;;;11.60;99.90;;;;;;5033493;28;20178;-80
2023/12/23 09:09:25;;;;;;;8.05;2.25;;;11.70;99.90;;;;;;5017759;28;20632;-79
2023/12/23 09:11:51;;;;;;;4.57;2.27;;;11.70;99.90;;;;;;5005809;28;20259;-81
2023/12/23 09:14:17;;;;;;;6.47;2.30;;;11.80;99.90;;;;;;5003896;28;20204;-79
2023/12/23 09:16:43;;;;;;;10.60;2.03;;;11.80;99.90;;;;;;5034787;28;20900;-81
2023/12/23 09:19:09;;;;;;;6.13;2.27;;;11.90;99.90;;;;;;5011264;28;20699;-81
2023/12/23 09:21:34;;;;;;;9.50;1.67;;;11.90;99.90;;;;;;5033609;28;20221;-80
2023/12/23 09:24:00;;;;;;;8.37;1.97;;;11.90;99.90;;;;;;5016787;28;20185;-81
2023/12/23 09:26:26;;;;;;;6.80;1.87;;;12.00;99.90;;;;;;5032217;28;20208;-80
2023/12/23 09:28:52;;;;;;;5.47;1.80;;;12.00;99.90;;;;;;5013023;28;20679;-81
2023/12/23 09:31:18;;;;;;;8.53;1.73;;;12.00;99.90;;;;;;5003278;28;20169;-81
2023/12/23 09:33:44;;;;;;;7.07;1.87;;;12.00;99.90;;;;;;5032976;28;20584;-81
2023/12/23 09:36:10;;;;;;;6.63;2.20;;;12.00;99.90;;;;;;5025284;28;20522;-82
2023/12/23 09:38:36;;;;;;;7.50;2.60;;;12.20;99.90;;;;;;5007410;28;20193;-82
2023/12/23 09:41:02;;;;;;;9.43;2.23;;;12.20;99.90;;;;;;5014977;28;20597;-81
2023/12/23 09:43:28;;;;;;;4.70;1.40;;;12.20;99.90;;;;;;4991311;28;20185;-81
2023/12/23 09:45:56;;;;;;;4.43;1.47;;;12.20;99.90;;;;;;4982969;28;20646;-80
2023/12/23 09:48:22;;;;;;;6.97;1.77;;;12.20;99.90;;;;;;5015096;28;20178;-80
2023/12/23 09:50:49;;;;;;;6.60;1.30;;;12.20;99.90;;;;;;5024829;28;21001;-81
2023/12/23 09:53:20;;;;;;;6.47;4.17;;;12.20;99.90;;;;;;4997343;28;20576;-81
2023/12/23 09:55:45;;;;;;;6.07;2.30;;;12.20;99.90;;;;;;5033395;28;20603;-81
2023/12/23 09:58:13;;;;;;;12.07;2.43;;;12.30;99.90;;;;;;5033641;28;20580;-82
2023/12/23 10:00:39;;;;;;;6.07;1.93;;;12.30;99.90;;;;;;5007179;28;20586;-83
2023/12/23 10:03:06;;;;;;;4.13;1.93;;;12.40;99.90;;;;;;5007290;28;20679;-81
2023/12/23 10:05:34;;;;;;;4.70;1.50;;;12.30;99.90;;;;;;5011088;28;20643;-81
2023/12/23 10:08:01;;;;;;;3.13;1.63;;;12.40;99.90;;;;;;5027141;28;20610;-82
2023/12/23 10:10:30;;;;;;;4.67;1.43;;;12.40;99.90;;;;;;4990462;28;20743;-81
2023/12/23 10:12:56;;;;;;;7.20;2.07;;;12.40;99.90;;;;;;5014941;28;20607;-80
2023/12/23 10:15:22;;;;;;;3.13;1.23;;;12.50;99.90;;;;;;5015029;28;21089;-81
2023/12/23 10:17:47;;;;;;;3.80;1.30;;;12.50;99.90;;;;;;5014584;28;20281;-80
2023/12/23 10:20:13;;;;;;;3.27;1.17;;;12.50;99.90;;;;;;5014755;28;20586;-81
2023/12/23 10:22:47;;;;;;;4.87;1.27;;;12.50;99.90;;;;;;4998046;28;20178;-82
2023/12/23 10:25:13;;;;;;;4.97;1.90;;;12.50;99.90;;;;;;5032506;28;20657;-82
2023/12/23 10:28:09;;;;;;;5.10;1.10;;;12.50;99.90;;;;;;4990858;28;20592;-76
2023/12/23 10:30:38;;;;;;;3.07;1.20;;;12.50;99.90;;;;;;5012712;28;20666;-76
2023/12/23 10:33:06;;;;;;;2.67;1.20;;;12.50;99.90;;;;;;5026298;28;20594;-76
2023/12/23 10:35:43;;;;;;;2.77;1.37;;;12.50;99.90;;;;;;5033753;28;20598;-76
2023/12/23 10:38:13;;;;;;;3.70;1.47;;;12.50;99.90;;;;;;5017466;28;20591;-76
2023/12/23 10:40:42;;;;;;;5.23;1.60;;;12.40;99.90;;;;;;5051761;28;21227;-76
2023/12/23 10:43:10;;;;;;;3.07;1.57;;;12.40;99.90;;;;;;5042963;28;20638;-76
2023/12/23 10:45:37;;;;;;;3.20;1.30;;;12.40;99.90;;;;;;5016736;28;20659;-76
2023/12/23 10:48:05;;;;;;;4.07;1.30;;;12.30;99.90;;;;;;5033719;28;20576;-75
2023/12/23 10:50:31;;;;;;;2.27;1.07;;;12.30;99.90;;;;;;5051532;28;21287;-75
2023/12/23 10:52:58;;;;;;;4.90;1.10;;;12.30;99.90;;;;;;5032517;28;20591;-76
2023/12/23 10:55:24;;;;;;;5.07;1.20;;;12.30;99.90;;;;;;5033454;28;20619;-76
2023/12/23 10:57:53;;;;;;;4.80;1.20;;;12.30;99.90;;;;;;5016920;28;20575;-76
2023/12/23 11:00:19;;;;;;;4.13;1.43;;;12.20;99.90;;;;;;5016688;28;20965;-76
2023/12/23 11:02:48;;;;;;;5.17;1.30;;;12.20;99.90;;;;;;5032660;28;20579;-76
2023/12/23 11:05:15;;;;;;;3.20;0.97;;;12.20;99.90;;;;;;5027496;28;20205;-76
2023/12/23 11:07:46;;;;;;;6.97;2.83;;;12.20;99.90;;;;;;5048871;28;20576;-77
2023/12/23 11:10:14;;;;;;;9.47;4.70;;;12.20;99.90;;;;;;5029525;28;21036;-77
2023/12/23 11:12:42;;;;;;;7.13;2.83;;;12.10;99.90;;;;;;5015587;28;20682;-76
2023/12/23 11:15:08;;;;;;;7.75;4.00;;;12.10;99.90;;;;;;5043655;28;21902;-76
2023/12/23 11:17:40;;;;;;;6.87;4.23;;;12.10;99.90;;;;;;5024898;28;20188;-77
2023/12/23 11:20:07;;;;;;;4.20;2.10;;;12.10;99.90;;;;;;5033708;28;20673;-76
2023/12/23 11:22:38;;;;;;;6.47;1.70;;;12.10;99.90;;;;;;5029018;28;20603;-77
2023/12/23 11:25:24;;;;;;;6.43;1.47;;;12.10;99.90;;;;;;5025415;28;21250;-76
2023/12/23 11:27:50;;;;;;;3.23;1.20;;;12.10;99.90;;;;;;5038201;28;20655;-77
2023/12/23 11:30:15;;;;;;;3.97;1.10;;;12.20;99.90;;;;;;4998259;28;20639;-76
2023/12/23 11:32:43;;;;;;;6.50;1.27;;;12.20;99.90;;;;;;5021521;28;20644;-75
2023/12/23 11:35:13;;;;;;;2.37;1.07;;;12.20;99.90;;;;;;4997742;28;20183;-76
2023/12/23 11:37:54;;;;;;;3.10;1.27;;;12.20;99.90;;;;;;5029625;28;20592;-76
2023/12/23 11:40:22;;;;;;;7.80;1.37;;;12.10;99.90;;;;;;5004181;28;20194;-75
2023/12/23 11:42:49;;;;;;;4.20;1.20;;;12.20;99.90;;;;;;5012204;28;20587;-76
2023/12/23 11:45:16;;;;;;;3.63;0.97;;;12.20;99.90;;;;;;5020707;28;20682;-76
2023/12/23 11:47:42;;;;;;;2.60;1.20;;;12.10;99.90;;;;;;5050209;28;20642;-75
2023/12/23 11:50:09;;;;;;;3.83;1.00;;;12.20;99.90;;;;;;5041687;28;20762;-76
2023/12/23 11:52:35;;;;;;;5.03;1.10;;;12.20;99.90;;;;;;5035260;28;20575;-75
2023/12/23 11:55:05;;;;;;;3.87;1.40;;;12.20;99.90;;;;;;5032344;28;21140;-76
2023/12/23 11:57:31;;;;;;;4.57;1.38;;;12.20;99.90;;;;;;5037519;28;20584;-76
2023/12/23 12:00:01;;;;;;;5.77;1.67;;;12.20;99.90;;;;;;5021633;28;20671;-76
2023/12/23 12:02:27;;;;;;;2.73;1.70;;;12.10;99.90;;;;;;5044995;28;21078;-76
2023/12/23 12:04:53;;;;;;;3.33;1.23;;;12.10;99.90;;;;;;5041016;28;20619;-76
2023/12/23 12:07:20;;;;;;;3.80;1.20;;;12.10;99.90;;;;;;5032321;28;20211;-76
2023/12/23 12:09:46;;;;;;;2.97;1.10;;;12.20;99.90;;;;;;5015404;28;20663;-76
2023/12/23 12:12:13;;;;;;;3.37;1.10;;;12.10;99.90;;;;;;5049266;28;20619;-76
2023/12/23 12:14:39;;;;;;;3.00;1.20;;;12.10;99.90;;;;;;4994899;28;20178;-77
2023/12/23 12:17:07;;;;;;;6.07;1.37;;;12.20;99.90;;;;;;5032869;28;20670;-77
2023/12/23 12:19:33;;;;;;;5.20;1.30;;;12.20;99.90;;;;;;5016148;28;20719;-77
2023/12/23 12:21:59;;;;;;;3.73;1.20;;;12.30;99.90;;;;;;5023398;28;20591;-76
2023/12/23 12:24:26;;;;;;;5.70;1.63;;;12.30;99.90;;;;;;5004863;28;20592;-76
2023/12/23 12:26:53;;;;;;;6.17;1.60;;;12.30;99.90;;;;;;5012118;28;20681;-77
2023/12/23 12:29:22;;;;;;;2.70;1.00;;;12.40;99.90;;;;;;5009321;28;20611;-76
2023/12/23 12:31:52;;;;;;;3.67;1.47;;;12.40;99.90;;;;;;5031728;28;20591;-77
2023/12/23 12:34:20;;;;;;;2.53;1.40;;;12.50;99.90;;;;;;5015902;28;20607;-77
2023/12/23 12:36:46;;;;;;;3.80;1.33;;;12.50;99.90;;;;;;5049462;28;20592;-76
2023/12/23 12:39:13;;;;;;;3.93;1.30;;;12.60;99.90;;;;;;5049960;28;20620;-77
2023/12/23 12:41:41;;;;;;;3.80;1.10;;;12.60;99.90;;;;;;5031145;28;20180;-77
2023/12/23 12:44:07;;;;;;;3.90;1.73;;;12.70;99.90;;;;;;5011122;28;20591;-77
2023/12/23 12:46:36;;;;;;;2.13;1.00;;;12.70;99.90;;;;;;5031795;28;20635;-77